Detall de PIREP

Printer-friendly versionPDF version

[2015/06/02 09:18:00]
Flight IATA:CT1005
Pilot Number:011
Company ICAO:CAT
Aircraft Type:B738/F
PAX:160
Departing Airport: EVVA
Destination Airport: EYKA
Alternate Airport:EYSA
Online: VATSIM
Route:TOLBI DCT MIRMA N616 TOTRA M996 PIVOM
Flight Level:F170
No Slew and time accel
No pause
Crash detect
Detect pilot in Cockpit between each 30 and 45 minutes
09:18 Zero fuel Weight: 135990 Lbs, Fuel Weight: 10354 Lbs
09:18 VATSIM:EVVA 020850Z AUTO VRB03KT CAVOK 17/09 Q1014
09:18 VATSIM:EYKA 020920Z VRB03KT CAVOK 22/13 Q1015
09:20 Parking Brakes off
09:26 Take-off
09:26 Take off Weight: 145671 Lbs
09:26 Wind: 178º @ 006 Knots Heading: 213º
09:26 POS N57º 21´ 12´´ E021º 32´ 18´´
09:26 Gear Up: 166 Knots
09:26 Flaps:6 at 166 Knots
09:27 Flaps:5 at 226 Knots
09:27 Flaps:4 at 229 Knots
09:27 Flaps:3 at 235 Knots
09:27 Flaps:2 at 235 Knots
09:28 Flaps:1 at 241 Knots
09:28Flaps:0 at 241 Knots
09:33 TOC
09:33 Fuel Weight: 7930 Lb
09:41 Wind:185º@016 Knots Heading: 160º Ground Speed: 360 Knots Altitude 17050 ft
09:48 TOD
09:48 Fuel Weight: 6447 Lb
09:56 Wind:166º@011 Knots Heading: 182º Ground Speed: 299 Knots Altitude 3690 ft
09:57 Flaps:1 at 227 Knots
09:57 Flaps:2 at 227 Knots
09:57 Flaps:3 at 226 Knots
09:58 Flaps:4 at 186 Knots
09:58 Flaps:5 at 184 Knots
09:59 Flaps:6 at 173 Knots
09:59 Gear Down: 171 Knots
09:59 Flaps:7 at 165 Knots
10:00 Flaps:8 at 157 Knots
10:05 Gear Up: 134 Knots
10:06 Flaps:7 at 149 Knots
10:06 Flaps:6 at 149 Knots
10:06 Flaps:5 at 148 Knots
10:06 Flaps:4 at 148 Knots
10:06 Flaps:3 at 149 Knots
10:10 Flaps:4 at 297 Knots
10:10 Flaps:5 at 296 Knots
10:11 Wind:165º@007 Knots Heading: 347º Ground Speed: 282 Knots Altitude 2171 ft
10:12 Flaps:6 at 201 Knots
10:12 Flaps:7 at 197 Knots
10:12 Flaps:8 at 193 Knots
10:12 Gear Down: 189 Knots
10:15 TouchDown:Rate -432 ft/min Speed: 117 Knots
10:15 VATSIM:EYKA 020950Z 16007KT 080V220 CAVOK 23/14 Q1014
10:15 Land
10:15 Wind:144º@007 Knots
10:15 Heading: 084º
10:15 Flight Duration: 00:49
10:15 Landing Weight: 138879 Lbs
10:15 POS N54º 57´ 48´´ E024º 04´ 47´´
10:16 Parking brakes on
10:16 Block to Block Duration: 00:56
10:16 Final Fuel: 2797 Lbls
10:16 Spent Fuel: 7557 Lbls
10:16 Flight Length: 228 NM
10:16 TOD Land Length: 106 NM

Exportar CSV

Powered by Drupal - Modified by Danger4k